createdAt,value
2023-03-28T00:02:38.987Z,41.24
2023-03-28T00:07:41.152Z,41.00
2023-03-28T00:12:43.801Z,41.13
2023-03-28T00:17:45.892Z,41.16
2023-03-28T00:22:47.983Z,41.03
2023-03-28T00:27:50.118Z,41.22
2023-03-28T00:32:52.469Z,41.08
2023-03-28T00:37:58.964Z,41.15
2023-03-28T00:43:01.074Z,41.19
2023-03-28T00:48:15.204Z,40.99
2023-03-28T00:53:21.785Z,40.87
2023-03-28T00:58:27.927Z,41.22
2023-03-28T01:03:34.131Z,41.06
2023-03-28T01:08:41.670Z,41.16
2023-03-28T01:13:50.443Z,40.89
2023-03-28T01:18:53.338Z,41.24
2023-03-28T01:24:38.526Z,41.05
2023-03-28T01:30:12.777Z,40.89
2023-03-28T01:35:38.787Z,40.79
2023-03-28T01:40:49.542Z,41.10
2023-03-28T01:46:11.103Z,40.88
2023-03-28T01:51:35.052Z,40.95
2023-03-28T01:56:47.346Z,41.05
2023-03-28T02:02:04.765Z,41.12
2023-03-28T02:07:09.238Z,40.93
2023-03-28T02:12:19.939Z,41.04
2023-03-28T02:17:24.215Z,41.15
2023-03-28T02:22:35.887Z,41.10
2023-03-28T02:27:40.249Z,41.15
2023-03-28T02:32:44.481Z,40.93
2023-03-28T02:37:49.899Z,41.17
2023-03-28T02:43:03.585Z,41.13
2023-03-28T02:48:31.912Z,41.08
2023-03-28T02:54:02.532Z,40.93
2023-03-28T02:59:12.769Z,41.23
2023-03-28T03:04:17.665Z,40.90
2023-03-28T03:09:19.708Z,41.04
2023-03-28T03:14:21.633Z,40.88
2023-03-28T03:19:23.618Z,41.10
2023-03-28T03:24:25.713Z,40.88
2023-03-28T03:29:27.577Z,40.75
2023-03-28T03:34:41.648Z,41.07
2023-03-28T03:39:46.779Z,40.90
2023-03-28T03:44:48.824Z,40.82
2023-03-28T03:49:51.104Z,40.91
2023-03-28T03:54:53.081Z,41.03
2023-03-28T03:59:55.083Z,40.76
2023-03-28T04:04:57.504Z,40.89
2023-03-28T04:09:59.664Z,41.02
2023-03-28T04:15:01.588Z,40.86
2023-03-28T04:20:14.271Z,40.90
2023-03-28T04:25:18.011Z,41.10
2023-03-28T04:30:21.964Z,40.96
2023-03-28T04:35:24.499Z,41.07
2023-03-28T04:40:28.500Z,40.80
2023-03-28T04:45:30.657Z,40.94
2023-03-28T04:50:35.171Z,40.70
2023-03-28T04:55:38.099Z,40.87
2023-03-28T05:00:40.486Z,40.67
2023-03-28T05:05:42.563Z,40.94
2023-03-28T05:10:45.829Z,40.88
2023-03-28T05:15:48.802Z,41.01
2023-03-28T05:20:51.184Z,40.77
2023-03-28T05:25:54.758Z,41.06
2023-03-28T05:30:57.974Z,40.72
2023-03-28T05:36:00.675Z,40.79
2023-03-28T05:41:03.374Z,40.79
2023-03-28T05:46:06.502Z,40.99
2023-03-28T05:51:08.855Z,40.86
2023-03-28T05:56:11.194Z,41.03
2023-03-28T06:01:13.193Z,40.95
2023-03-28T06:06:15.568Z,40.77
2023-03-28T06:11:17.694Z,40.80
2023-03-28T06:16:19.868Z,40.68
2023-03-28T06:21:33.345Z,40.60
2023-03-28T06:26:35.357Z,40.76
2023-03-28T06:31:37.357Z,40.94
2023-03-28T06:36:40.031Z,40.75
2023-03-28T06:41:42.177Z,40.65
2023-03-28T06:46:44.412Z,40.86
2023-03-28T06:51:46.465Z,40.54
2023-03-28T06:56:48.499Z,40.54
2023-03-28T07:01:50.652Z,40.67
2023-03-28T07:06:52.535Z,40.73
2023-03-28T07:11:54.636Z,40.54
2023-03-28T07:16:57.601Z,40.49
2023-03-28T07:21:59.671Z,40.45
2023-03-28T07:32:10.002Z,40.67
2023-03-28T07:37:11.926Z,40.46
2023-03-28T07:42:15.318Z,40.32
2023-03-28T07:47:18.523Z,40.52
2023-03-28T07:52:21.152Z,40.70
2023-03-28T07:57:23.254Z,40.65
2023-03-28T08:02:25.864Z,40.39
2023-03-28T08:07:28.743Z,40.38
2023-03-28T08:12:30.775Z,38.32
2023-03-28T08:17:32.836Z,38.04
2023-03-28T08:22:34.752Z,38.02
2023-03-28T08:27:37.094Z,37.77
2023-03-28T08:32:39.202Z,37.91
2023-03-28T08:37:41.404Z,37.98
2023-03-28T08:43:02.124Z,37.51
2023-03-28T08:48:12.808Z,37.89
2023-03-28T08:53:39.241Z,38.14
2023-03-28T08:58:51.760Z,38.90
2023-03-28T09:03:54.271Z,41.32
2023-03-28T09:09:14.857Z,41.06
2023-03-28T09:14:41.940Z,40.67
2023-03-28T09:19:53.197Z,39.63
2023-03-28T09:25:17.286Z,38.28
2023-03-28T09:30:24.501Z,37.99
2023-03-28T09:35:29.202Z,36.80
2023-03-28T09:40:34.435Z,36.32
2023-03-28T09:45:36.644Z,35.51
2023-03-28T09:50:38.819Z,34.92
2023-03-28T09:55:42.863Z,34.08
2023-03-28T10:00:52.981Z,33.63
2023-03-28T10:05:59.286Z,32.53
2023-03-28T10:11:07.490Z,31.96
2023-03-28T10:16:12.248Z,31.33
2023-03-28T10:21:32.965Z,30.84
2023-03-28T10:26:35.165Z,30.51
2023-03-28T10:31:39.838Z,30.98
2023-03-28T10:36:44.073Z,30.87
2023-03-28T10:42:04.397Z,30.47
2023-03-28T10:47:15.240Z,27.46
2023-03-28T10:52:28.879Z,28.55
2023-03-28T10:58:09.770Z,28.92
2023-03-28T11:03:15.799Z,29.01
2023-03-28T11:08:30.327Z,29.96
2023-03-28T11:14:02.419Z,27.82
2023-03-28T11:19:24.495Z,28.29
2023-03-28T11:24:40.402Z,27.98
2023-03-28T11:29:49.611Z,28.03
2023-03-28T11:35:26.938Z,28.42
2023-03-28T11:40:48.491Z,28.20
2023-03-28T11:45:56.451Z,28.17
2023-03-28T11:51:10.134Z,28.15
2023-03-28T11:56:12.164Z,29.08
2023-03-28T12:01:30.608Z,29.51
2023-03-28T12:06:59.702Z,30.23
2023-03-28T12:12:09.648Z,31.13
2023-03-28T12:17:19.890Z,31.50
2023-03-28T12:22:41.263Z,31.74
2023-03-28T12:27:58.290Z,31.72
2023-03-28T12:33:29.757Z,32.01
2023-03-28T12:38:42.654Z,32.21
2023-03-28T12:44:02.628Z,32.22
2023-03-28T12:49:07.796Z,30.38
2023-03-28T12:54:16.054Z,30.22
2023-03-28T12:59:39.828Z,29.93
2023-03-28T13:05:00.223Z,29.21
2023-03-28T13:10:15.503Z,28.82
2023-03-28T13:15:21.715Z,29.26
2023-03-28T13:20:23.710Z,29.31
2023-03-28T13:25:32.743Z,29.25
2023-03-28T13:30:35.287Z,29.47
2023-03-28T13:35:49.213Z,29.19
2023-03-28T13:40:53.616Z,29.67
2023-03-28T13:46:02.100Z,29.10
2023-03-28T13:51:07.807Z,28.84
2023-03-28T13:56:23.556Z,30.18
2023-03-28T14:01:33.831Z,30.14
2023-03-28T14:06:41.046Z,31.22
2023-03-28T14:11:44.218Z,31.15
2023-03-28T14:16:46.990Z,31.37
2023-03-28T14:21:49.095Z,31.85
2023-03-28T14:26:52.641Z,30.82
2023-03-28T14:31:55.765Z,31.17
2023-03-28T14:36:59.215Z,32.12
2023-03-28T14:42:07.232Z,32.15
2023-03-28T14:47:16.052Z,33.32
2023-03-28T14:52:29.517Z,33.85
2023-03-28T14:57:32.084Z,35.02
2023-03-28T15:02:36.755Z,36.52
2023-03-28T15:07:39.714Z,37.18
2023-03-28T15:12:48.423Z,39.81
2023-03-28T15:17:52.862Z,33.57
2023-03-28T15:22:58.810Z,30.95
2023-03-28T15:28:05.817Z,31.59
2023-03-28T15:33:07.872Z,32.87
2023-03-28T15:38:16.905Z,33.88
2023-03-28T15:43:28.373Z,34.06
2023-03-28T15:48:35.025Z,33.95
2023-03-28T15:53:38.643Z,34.12
2023-03-28T15:58:43.979Z,34.53
2023-03-28T16:03:47.147Z,34.62
2023-03-28T16:08:57.025Z,34.75
2023-03-28T16:14:01.501Z,35.10
2023-03-28T16:19:13.978Z,34.86
2023-03-28T16:24:16.458Z,35.12
2023-03-28T16:29:18.241Z,35.03
2023-03-28T16:34:20.110Z,35.91
2023-03-28T16:39:22.287Z,36.13
2023-03-28T16:44:25.187Z,36.21
2023-03-28T16:49:27.534Z,35.83
2023-03-28T16:54:29.811Z,35.80
2023-03-28T16:59:31.882Z,35.90
2023-03-28T17:04:34.136Z,35.88
2023-03-28T17:09:36.630Z,36.50
2023-03-28T17:14:38.634Z,36.54
2023-03-28T17:19:40.605Z,36.17
2023-03-28T17:24:44.330Z,36.59
2023-03-28T17:29:46.441Z,36.46
2023-03-28T17:34:48.784Z,36.44
2023-03-28T17:39:51.617Z,36.52
2023-03-28T17:44:55.186Z,36.74
2023-03-28T17:50:00.593Z,36.51
2023-03-28T17:55:02.621Z,36.52
2023-03-28T18:00:06.113Z,38.06
2023-03-28T18:05:08.367Z,39.32
2023-03-28T18:10:10.732Z,38.24
2023-03-28T18:15:15.978Z,38.10
2023-03-28T18:20:18.177Z,37.96
2023-03-28T18:25:20.316Z,37.42
2023-03-28T18:30:22.265Z,37.50
2023-03-28T18:35:24.915Z,37.57
2023-03-28T18:40:26.817Z,37.46
2023-03-28T18:45:29.222Z,37.29
2023-03-28T18:50:31.973Z,37.41
2023-03-28T18:55:34.335Z,37.18
2023-03-28T19:00:36.814Z,37.58
2023-03-28T19:05:39.196Z,37.22
2023-03-28T19:10:46.679Z,37.36
2023-03-28T19:16:01.460Z,37.38
2023-03-28T19:21:03.600Z,37.21
2023-03-28T19:26:07.621Z,37.34
2023-03-28T19:31:12.177Z,37.22
2023-03-28T19:36:14.321Z,37.24
2023-03-28T19:41:19.267Z,37.34
2023-03-28T19:46:36.353Z,37.49
2023-03-28T19:51:40.606Z,37.54
2023-03-28T19:56:42.994Z,37.50
2023-03-28T20:01:45.079Z,37.24
2023-03-28T20:06:50.928Z,37.32
2023-03-28T20:11:53.333Z,37.56
2023-03-28T20:16:55.727Z,37.63
2023-03-28T20:21:57.668Z,37.25
2023-03-28T20:26:59.581Z,37.55
2023-03-28T20:32:01.783Z,37.46
2023-03-28T20:37:03.846Z,37.45
2023-03-28T20:42:06.813Z,37.82
2023-03-28T20:47:11.143Z,37.85
2023-03-28T20:52:13.323Z,37.56
2023-03-28T20:57:15.470Z,37.81
2023-03-28T21:02:17.547Z,37.75
2023-03-28T21:07:19.442Z,37.67
2023-03-28T21:12:22.116Z,39.26
2023-03-28T21:17:26.270Z,39.59
2023-03-28T21:22:28.940Z,39.31
2023-03-28T21:27:32.193Z,39.40
2023-03-28T21:32:35.347Z,39.56
2023-03-28T21:37:37.785Z,39.28
2023-03-28T21:42:39.636Z,39.34
2023-03-28T21:47:42.942Z,39.27
2023-03-28T21:52:44.825Z,38.91
2023-03-28T21:57:47.005Z,38.86
2023-03-28T22:02:48.941Z,38.91
2023-03-28T22:07:51.110Z,39.01
2023-03-28T22:12:54.378Z,38.77
2023-03-28T22:17:58.482Z,38.98
2023-03-28T22:23:01.475Z,38.75
2023-03-28T22:28:05.114Z,39.05
2023-03-28T22:33:10.284Z,38.87
2023-03-28T22:38:12.702Z,38.82
2023-03-28T22:43:15.209Z,38.93
2023-03-28T22:48:17.408Z,39.12
2023-03-28T22:53:23.025Z,39.05
2023-03-28T22:58:25.161Z,39.05
2023-03-28T23:03:28.153Z,38.83
2023-03-28T23:08:30.406Z,39.05
2023-03-28T23:13:32.552Z,39.14
2023-03-28T23:18:34.666Z,38.84
2023-03-28T23:23:37.009Z,38.85
2023-03-28T23:28:39.529Z,38.90
2023-03-28T23:33:41.719Z,39.13
2023-03-28T23:38:43.688Z,39.25
2023-03-28T23:43:46.095Z,38.98
2023-03-28T23:48:48.596Z,39.21
2023-03-28T23:53:51.259Z,39.05
2023-03-28T23:58:53.139Z,39.33
